Time;durP1;ratioP1;P1;durP2;ratioP2;P2;SDS_P1;SDS_P2;PMS_P1;PMS_P2;Temp;Humidity;BMP_temperature;BMP_pressure;BME280_temperature;BME280_humidity;BME280_pressure;Samples;Min_cycle;Max_cycle;Signal;HPM_P1;HPM_P2
2021/08/19 00:00:46;;;;;;;18.23;16.43;;;17.50;99.90;;;;;;5054762;28;20840;-72
2021/08/19 00:03:11;;;;;;;17.60;15.30;;;17.40;99.90;;;;;;5035873;28;20175;-72
2021/08/19 00:05:37;;;;;;;17.13;15.30;;;17.50;99.90;;;;;;5053591;28;20555;-72
2021/08/19 00:08:02;;;;;;;20.23;16.37;;;17.50;99.90;;;;;;5053967;28;20170;-73
2021/08/19 00:10:28;;;;;;;18.70;16.60;;;17.40;99.90;;;;;;5053374;28;20190;-73
2021/08/19 00:12:53;;;;;;;19.40;17.23;;;17.50;99.90;;;;;;5053853;28;20491;-73
2021/08/19 00:15:19;;;;;;;18.17;16.00;;;17.60;99.90;;;;;;5053439;28;20194;-73
2021/08/19 00:17:44;;;;;;;21.77;17.53;;;17.60;99.90;;;;;;5036910;28;20192;-73
2021/08/19 00:20:11;;;;;;;18.90;16.43;;;17.50;99.90;;;;;;5058956;28;20538;-72
2021/08/19 00:22:36;;;;;;;20.63;16.50;;;17.50;99.90;;;;;;5058647;28;20167;-73
2021/08/19 00:25:03;;;;;;;20.50;16.90;;;17.50;99.90;;;;;;5057911;28;20504;-72
2021/08/19 00:27:29;;;;;;;17.03;15.23;;;17.50;99.90;;;;;;5059079;28;20181;-73
2021/08/19 00:29:54;;;;;;;18.83;16.90;;;17.50;99.90;;;;;;5058346;28;20437;-72
2021/08/19 00:32:20;;;;;;;18.90;16.20;;;17.50;99.90;;;;;;5056991;28;20178;-73
2021/08/19 00:34:45;;;;;;;17.50;15.70;;;17.50;99.90;;;;;;5057179;28;20179;-73
2021/08/19 00:37:11;;;;;;;19.10;16.53;;;17.50;99.90;;;;;;5038748;28;20174;-73
2021/08/19 00:39:40;;;;;;;16.10;14.40;;;17.50;99.90;;;;;;5056345;28;20206;-72
2021/08/19 00:42:06;;;;;;;17.83;15.00;;;17.60;99.90;;;;;;5057149;28;20170;-72
2021/08/19 00:44:32;;;;;;;18.07;15.60;;;17.60;99.90;;;;;;5057374;28;20496;-73
2021/08/19 00:46:58;;;;;;;17.70;15.73;;;17.50;99.90;;;;;;5057260;28;20443;-72
2021/08/19 00:49:23;;;;;;;19.77;15.80;;;17.50;99.90;;;;;;5056849;28;20183;-72
2021/08/19 00:51:53;;;;;;;20.93;15.60;;;17.50;99.90;;;;;;5056867;28;20212;-72
2021/08/19 00:54:24;;;;;;;17.40;15.57;;;17.50;99.90;;;;;;5057093;28;20538;-72
2021/08/19 00:56:57;;;;;;;18.30;16.30;;;17.50;99.90;;;;;;5056926;28;20472;-72
2021/08/19 00:59:25;;;;;;;15.43;13.93;;;17.40;99.90;;;;;;5056634;28;20487;-72
2021/08/19 01:02:00;;;;;;;16.67;14.70;;;17.50;99.90;;;;;;5056922;28;20501;-72
2021/08/19 01:04:29;;;;;;;16.53;14.73;;;17.50;99.90;;;;;;5039032;28;20420;-72
2021/08/19 01:06:54;;;;;;;17.17;15.10;;;17.50;99.90;;;;;;5057135;28;20467;-72
2021/08/19 01:09:20;;;;;;;16.10;14.50;;;17.50;99.90;;;;;;5056286;28;20964;-72
2021/08/19 01:11:46;;;;;;;18.92;16.92;;;17.50;99.90;;;;;;5055627;28;20462;-72
2021/08/19 01:14:14;;;;;;;25.00;16.20;;;17.50;99.90;;;;;;5056978;28;20564;-72
2021/08/19 01:16:40;;;;;;;19.00;16.07;;;17.50;99.90;;;;;;5056321;28;20198;-71
2021/08/19 01:19:06;;;;;;;18.87;16.53;;;17.50;99.90;;;;;;5056057;28;20413;-71
2021/08/19 01:21:31;;;;;;;18.50;16.37;;;17.50;99.90;;;;;;5056245;28;20923;-71
2021/08/19 01:23:58;;;;;;;18.80;16.07;;;17.50;99.90;;;;;;5055910;28;20174;-72
2021/08/19 01:26:25;;;;;;;18.43;15.37;;;17.50;99.90;;;;;;5056402;28;20163;-72
2021/08/19 01:28:54;;;;;;;17.73;15.93;;;17.50;99.90;;;;;;5055885;28;20405;-72
2021/08/19 01:31:24;;;;;;;21.83;17.00;;;17.50;99.90;;;;;;5055640;28;20793;-72
2021/08/19 01:33:49;;;;;;;21.17;17.27;;;17.50;99.90;;;;;;5056099;28;20780;-72
2021/08/19 01:36:16;;;;;;;18.27;15.57;;;17.50;99.90;;;;;;5056322;28;20455;-73
2021/08/19 01:38:44;;;;;;;18.13;15.57;;;17.50;99.90;;;;;;5056047;28;20240;-72
2021/08/19 01:41:10;;;;;;;16.63;14.80;;;17.50;99.90;;;;;;5055712;28;20429;-72
2021/08/19 01:43:38;;;;;;;16.20;14.50;;;17.60;99.90;;;;;;5056205;28;20399;-72
2021/08/19 01:46:05;;;;;;;17.97;13.60;;;17.50;99.90;;;;;;5055859;28;20206;-72
2021/08/19 01:48:30;;;;;;;17.73;15.27;;;17.50;99.90;;;;;;5037941;28;20777;-72
2021/08/19 01:50:56;;;;;;;18.33;13.20;;;17.50;99.90;;;;;;5055115;28;20452;-72
2021/08/19 01:53:25;;;;;;;14.67;13.17;;;17.50;99.90;;;;;;5056609;28;20179;-73
2021/08/19 01:55:53;;;;;;;17.70;14.70;;;17.50;99.90;;;;;;5055741;28;20281;-72
2021/08/19 01:58:22;;;;;;;17.90;13.33;;;17.50;99.90;;;;;;5055711;28;20484;-72
2021/08/19 02:00:48;;;;;;;14.77;12.13;;;17.50;99.90;;;;;;5037694;28;20957;-72
2021/08/19 02:03:14;;;;;;;18.10;12.90;;;17.50;99.90;;;;;;5055804;28;20400;-72
2021/08/19 02:05:39;;;;;;;14.73;13.03;;;17.50;99.90;;;;;;5055690;28;20409;-72
2021/08/19 02:08:07;;;;;;;12.50;11.30;;;17.50;99.90;;;;;;5055857;28;20175;-72
2021/08/19 02:10:34;;;;;;;13.93;12.50;;;17.50;99.90;;;;;;5055250;28;20225;-72
2021/08/19 02:12:59;;;;;;;15.70;11.93;;;17.50;99.90;;;;;;5055772;28;20488;-72
2021/08/19 02:15:25;;;;;;;15.97;12.20;;;17.50;99.90;;;;;;5055985;28;20564;-72
2021/08/19 02:17:51;;;;;;;12.30;10.57;;;17.50;99.90;;;;;;5055726;28;20197;-72
2021/08/19 02:20:16;;;;;;;13.23;11.20;;;17.40;99.90;;;;;;5056623;28;20235;-72
2021/08/19 02:22:42;;;;;;;13.40;11.20;;;17.50;99.90;;;;;;5057214;28;20513;-72
2021/08/19 02:25:08;;;;;;;13.07;10.60;;;17.50;99.90;;;;;;5055464;28;20207;-72
2021/08/19 02:27:33;;;;;;;14.02;11.45;;;17.50;99.90;;;;;;5055010;28;20449;-72
2021/08/19 02:29:59;;;;;;;11.37;10.13;;;17.50;99.90;;;;;;5055588;28;20284;-72
2021/08/19 02:32:25;;;;;;;14.00;11.87;;;17.50;99.90;;;;;;5055576;28;20261;-72
2021/08/19 02:34:52;;;;;;;14.17;10.53;;;17.50;99.90;;;;;;5055251;28;20189;-72
2021/08/19 02:37:19;;;;;;;13.00;11.33;;;17.50;99.90;;;;;;5056009;28;20432;-72
2021/08/19 02:39:45;;;;;;;12.63;10.70;;;17.40;99.90;;;;;;5047468;28;20440;-72
2021/08/19 02:42:11;;;;;;;14.60;11.17;;;17.50;99.90;;;;;;5034394;28;20424;-72
2021/08/19 02:44:36;;;;;;;14.13;10.73;;;17.40;99.90;;;;;;5048789;28;20170;-71
2021/08/19 02:47:02;;;;;;;13.30;10.90;;;17.50;99.90;;;;;;5054773;28;20170;-73
2021/08/19 02:49:28;;;;;;;15.93;11.23;;;17.50;99.90;;;;;;5054497;28;20166;-71
2021/08/19 02:51:53;;;;;;;12.67;10.60;;;17.40;99.90;;;;;;5054494;28;20272;-72
2021/08/19 02:54:19;;;;;;;13.97;11.10;;;17.50;99.90;;;;;;5054539;28;20520;-72
2021/08/19 02:56:44;;;;;;;14.57;10.00;;;17.50;99.90;;;;;;5054403;28;20224;-72
2021/08/19 02:59:10;;;;;;;14.20;10.10;;;17.50;99.90;;;;;;5054316;28;20687;-72
2021/08/19 03:01:35;;;;;;;11.90;10.63;;;17.50;99.90;;;;;;5054824;28;20183;-73
2021/08/19 03:04:01;;;;;;;11.80;10.03;;;17.40;99.90;;;;;;5055028;28;20265;-73
2021/08/19 03:06:26;;;;;;;16.00;11.07;;;17.40;99.90;;;;;;5055065;28;20174;-72
2021/08/19 03:08:52;;;;;;;13.33;11.17;;;17.50;99.90;;;;;;5036200;28;20446;-72
2021/08/19 03:11:17;;;;;;;14.60;10.87;;;17.40;99.90;;;;;;5054073;28;20331;-73
2021/08/19 03:13:43;;;;;;;13.70;9.33;;;17.40;99.90;;;;;;5055778;28;20185;-73
2021/08/19 03:16:09;;;;;;;10.93;9.83;;;17.40;99.90;;;;;;5056807;28;20202;-73
2021/08/19 03:18:34;;;;;;;15.37;10.90;;;17.40;99.90;;;;;;5054563;28;20177;-73
2021/08/19 03:21:01;;;;;;;12.00;10.60;;;17.40;99.90;;;;;;5055645;28;20269;-72
2021/08/19 03:23:27;;;;;;;17.53;11.00;;;17.40;99.90;;;;;;5055716;28;20176;-72
2021/08/19 03:25:53;;;;;;;12.00;9.73;;;17.40;99.90;;;;;;5054043;28;20752;-72
2021/08/19 03:28:21;;;;;;;11.83;10.60;;;17.40;99.90;;;;;;5053916;28;20194;-72
2021/08/19 03:30:47;;;;;;;13.97;10.97;;;17.40;99.90;;;;;;5054165;28;20482;-73
2021/08/19 03:33:13;;;;;;;16.10;11.20;;;17.30;99.90;;;;;;5053880;28;20413;-72
2021/08/19 03:35:38;;;;;;;16.40;11.27;;;17.30;99.90;;;;;;5053413;28;20948;-73
2021/08/19 03:38:05;;;;;;;14.40;9.53;;;17.30;99.90;;;;;;5053580;28;20166;-72
2021/08/19 03:40:31;;;;;;;10.30;8.30;;;17.30;99.90;;;;;;5053568;28;20186;-73
2021/08/19 03:42:57;;;;;;;10.63;9.07;;;17.30;99.90;;;;;;5053201;28;20489;-72
2021/08/19 03:45:22;;;;;;;10.17;8.50;;;17.30;99.90;;;;;;5035862;28;20189;-73
2021/08/19 03:47:48;;;;;;;10.13;8.47;;;17.20;99.90;;;;;;5053215;28;20260;-72
2021/08/19 03:50:13;;;;;;;8.63;7.73;;;17.30;99.90;;;;;;5053002;28;20210;-73
2021/08/19 03:52:39;;;;;;;9.63;8.63;;;17.30;99.90;;;;;;5035036;28;20200;-72
2021/08/19 03:55:05;;;;;;;9.30;8.30;;;17.30;99.90;;;;;;5053586;28;20201;-73
2021/08/19 03:57:31;;;;;;;9.53;8.20;;;17.30;99.90;;;;;;5053912;28;20627;-71
2021/08/19 03:59:57;;;;;;;10.30;9.23;;;17.30;99.90;;;;;;5052945;28;20436;-72
2021/08/19 04:02:22;;;;;;;9.80;8.43;;;17.20;99.90;;;;;;5053129;28;20169;-72
2021/08/19 04:04:48;;;;;;;11.03;9.33;;;17.20;99.90;;;;;;5053559;28;20170;-73
2021/08/19 04:07:13;;;;;;;11.03;9.93;;;17.20;99.90;;;;;;5053477;28;20173;-73
2021/08/19 04:09:39;;;;;;;11.90;10.50;;;17.20;99.90;;;;;;5034688;28;20285;-73
2021/08/19 04:12:05;;;;;;;12.87;11.00;;;17.20;99.90;;;;;;5053686;28;20522;-72
2021/08/19 04:14:31;;;;;;;15.53;11.60;;;17.20;99.90;;;;;;5053438;28;20707;-72
2021/08/19 04:16:57;;;;;;;17.00;13.65;;;17.10;99.90;;;;;;5053471;28;20889;-72
2021/08/19 04:19:23;;;;;;;14.20;12.70;;;17.20;99.90;;;;;;5053358;28;20181;-72
2021/08/19 04:21:49;;;;;;;15.47;12.63;;;17.20;99.90;;;;;;5053982;28;20490;-72
2021/08/19 04:24:15;;;;;;;16.73;12.37;;;17.20;99.90;;;;;;5052841;28;20247;-72
2021/08/19 04:26:40;;;;;;;15.13;12.07;;;17.20;99.90;;;;;;5053556;28;20511;-72
2021/08/19 04:29:06;;;;;;;15.93;13.17;;;17.20;99.90;;;;;;5053684;28;20182;-72
2021/08/19 04:31:32;;;;;;;18.93;13.57;;;17.20;99.90;;;;;;5045226;28;20563;-73
2021/08/19 04:33:57;;;;;;;19.20;13.20;;;17.10;99.90;;;;;;5042088;28;20488;-72
2021/08/19 04:36:23;;;;;;;18.47;14.17;;;17.10;99.90;;;;;;5052844;28;20202;-73
2021/08/19 04:38:48;;;;;;;19.33;14.03;;;17.20;99.90;;;;;;5053451;28;20182;-72
2021/08/19 04:41:14;;;;;;;19.13;14.13;;;17.10;99.90;;;;;;5046682;28;20226;-73
2021/08/19 04:43:40;;;;;;;19.80;13.43;;;17.10;99.90;;;;;;5041719;28;20262;-72
2021/08/19 04:46:05;;;;;;;21.37;14.57;;;17.10;99.90;;;;;;5046248;28;20709;-73
2021/08/19 04:48:31;;;;;;;17.83;13.90;;;17.10;99.90;;;;;;5054403;28;20182;-73
2021/08/19 04:50:56;;;;;;;17.97;13.53;;;17.10;99.90;;;;;;5048066;28;20314;-72
2021/08/19 04:53:22;;;;;;;17.30;14.63;;;17.10;99.90;;;;;;5045603;28;20678;-72
2021/08/19 04:55:47;;;;;;;16.63;13.73;;;17.10;99.90;;;;;;5044698;28;20212;-73
2021/08/19 04:58:16;;;;;;;19.63;15.23;;;17.10;99.90;;;;;;5050295;28;20243;-73
2021/08/19 05:00:42;;;;;;;19.95;15.05;;;17.10;99.90;;;;;;5032476;28;20810;-72
2021/08/19 05:03:08;;;;;;;20.47;14.70;;;17.10;99.90;;;;;;5015482;28;20187;-72
2021/08/19 05:05:33;;;;;;;15.80;14.20;;;17.10;99.90;;;;;;5040915;28;20613;-71
2021/08/19 05:07:59;;;;;;;20.70;16.40;;;17.20;99.90;;;;;;5051649;28;20529;-74
2021/08/19 05:10:24;;;;;;;16.83;15.10;;;17.10;99.90;;;;;;5047111;28;20225;-72
2021/08/19 05:12:50;;;;;;;19.57;14.07;;;17.10;99.90;;;;;;5045607;28;20217;-72
2021/08/19 05:15:20;;;;;;;16.47;13.93;;;17.20;99.90;;;;;;5047497;28;20210;-73
2021/08/19 05:17:46;;;;;;;18.40;13.70;;;17.10;99.90;;;;;;5056785;28;20181;-72
2021/08/19 05:20:16;;;;;;;15.30;13.70;;;17.10;99.90;;;;;;5056179;28;20947;-72
2021/08/19 05:22:42;;;;;;;14.10;12.27;;;17.10;99.90;;;;;;5055290;28;20313;-73
2021/08/19 05:25:09;;;;;;;16.50;13.33;;;17.10;99.90;;;;;;5055225;28;20864;-72
2021/08/19 05:27:35;;;;;;;15.23;12.27;;;17.20;99.90;;;;;;5056497;28;20296;-72
2021/08/19 05:30:00;;;;;;;15.60;12.27;;;17.20;99.90;;;;;;5056227;28;20989;-72
2021/08/19 05:32:28;;;;;;;16.27;12.67;;;17.20;99.90;;;;;;5037975;28;20174;-72
2021/08/19 05:34:54;;;;;;;18.10;12.37;;;17.10;99.90;;;;;;5056564;28;20182;-72
2021/08/19 05:37:19;;;;;;;15.00;11.90;;;17.10;99.90;;;;;;5056293;28;20404;-73
2021/08/19 05:39:45;;;;;;;16.17;13.50;;;17.10;99.90;;;;;;5055497;28;20208;-72
2021/08/19 05:42:10;;;;;;;15.37;12.77;;;17.00;99.90;;;;;;5055934;28;20252;-72
2021/08/19 05:44:37;;;;;;;14.20;11.40;;;17.10;99.90;;;;;;5057001;28;20189;-73
2021/08/19 05:47:05;;;;;;;16.10;12.33;;;17.10;99.90;;;;;;5054749;28;20181;-71
2021/08/19 05:49:34;;;;;;;14.10;11.77;;;17.10;99.90;;;;;;5056821;28;20436;-72
2021/08/19 05:51:59;;;;;;;12.60;11.33;;;17.10;99.90;;;;;;5048738;28;20456;-73
2021/08/19 05:54:25;;;;;;;12.83;11.50;;;17.10;99.90;;;;;;5049974;28;20482;-72
2021/08/19 05:56:50;;;;;;;21.33;12.73;;;17.10;99.90;;;;;;5052975;28;20209;-72
2021/08/19 05:59:16;;;;;;;12.83;11.23;;;17.20;99.90;;;;;;5052978;28;20187;-72
2021/08/19 06:01:41;;;;;;;14.43;11.23;;;17.20;99.90;;;;;;5054957;28;20568;-74
2021/08/19 06:04:07;;;;;;;13.03;11.07;;;17.10;99.90;;;;;;5057570;28;20185;-72
2021/08/19 06:06:32;;;;;;;15.53;11.73;;;17.10;99.90;;;;;;5055398;28;20218;-72
2021/08/19 06:08:58;;;;;;;16.30;11.80;;;17.10;99.90;;;;;;5055948;28;20193;-72
2021/08/19 06:11:24;;;;;;;12.50;11.20;;;17.20;99.90;;;;;;5053359;28;20233;-72
2021/08/19 06:13:49;;;;;;;12.37;10.67;;;17.20;99.90;;;;;;5045137;28;20197;-71
2021/08/19 06:16:15;;;;;;;12.37;10.90;;;17.10;99.90;;;;;;5045983;28;20230;-73
2021/08/19 06:18:40;;;;;;;11.80;10.60;;;17.10;99.90;;;;;;5051500;28;20190;-73
2021/08/19 06:21:06;;;;;;;13.43;11.43;;;17.20;99.90;;;;;;5051501;28;20206;-73
2021/08/19 06:23:31;;;;;;;14.97;12.00;;;17.20;99.90;;;;;;5049972;28;20221;-73
2021/08/19 06:25:57;;;;;;;13.43;10.90;;;17.20;99.90;;;;;;5051583;28;20190;-74
2021/08/19 06:28:25;;;;;;;14.03;11.67;;;17.20;99.90;;;;;;5050997;28;20261;-72
2021/08/19 06:30:54;;;;;;;15.20;11.80;;;17.30;99.90;;;;;;5050875;28;20222;-72
2021/08/19 06:33:20;;;;;;;12.23;10.43;;;17.20;99.90;;;;;;5051037;28;20431;-73
2021/08/19 06:35:46;;;;;;;12.10;10.13;;;17.30;99.90;;;;;;5050899;28;20464;-72
2021/08/19 06:38:14;;;;;;;13.80;10.17;;;17.30;99.90;;;;;;5051263;28;20253;-72
2021/08/19 06:40:39;;;;;;;13.40;9.90;;;17.30;99.90;;;;;;5050733;28;20198;-72
2021/08/19 06:43:05;;;;;;;13.10;11.47;;;17.40;99.90;;;;;;5050602;28;20466;-72
2021/08/19 06:45:30;;;;;;;13.33;10.77;;;17.40;99.90;;;;;;5050111;28;20202;-73
2021/08/19 06:47:56;;;;;;;12.37;11.07;;;17.40;99.90;;;;;;5050880;28;20188;-73
2021/08/19 06:50:21;;;;;;;16.50;12.30;;;17.40;99.90;;;;;;5051391;28;20247;-73
2021/08/19 06:52:47;;;;;;;14.00;10.27;;;17.30;99.90;;;;;;5051008;28;20702;-72
2021/08/19 06:55:13;;;;;;;13.53;10.43;;;17.30;99.90;;;;;;5050828;28;20289;-74
2021/08/19 06:57:39;;;;;;;13.70;11.13;;;17.30;99.90;;;;;;5037162;28;20214;-72
2021/08/19 07:00:06;;;;;;;13.17;10.83;;;17.30;99.90;;;;;;5042719;28;20985;-70
2021/08/19 07:02:31;;;;;;;10.53;9.43;;;17.30;99.90;;;;;;5048381;28;20261;-71
2021/08/19 07:04:57;;;;;;;13.13;10.83;;;17.30;99.90;;;;;;5030280;28;20512;-72
2021/08/19 07:07:26;;;;;;;17.00;11.83;;;17.40;99.90;;;;;;5048924;28;20197;-72
2021/08/19 07:09:51;;;;;;;10.80;9.70;;;17.40;99.90;;;;;;5030767;28;20174;-73
2021/08/19 07:12:17;;;;;;;12.07;10.20;;;17.40;99.90;;;;;;5050252;28;20405;-72
2021/08/19 07:14:42;;;;;;;12.33;10.20;;;17.40;99.90;;;;;;5051851;28;20228;-72
2021/08/19 07:17:08;;;;;;;12.80;9.50;;;17.40;99.90;;;;;;5033442;28;20201;-72
2021/08/19 07:19:33;;;;;;;12.63;10.40;;;17.40;99.90;;;;;;5051368;28;20186;-72
2021/08/19 07:21:59;;;;;;;12.60;10.73;;;17.40;99.90;;;;;;5051709;28;20166;-72
2021/08/19 07:24:24;;;;;;;15.23;10.53;;;17.40;99.90;;;;;;5053922;28;20170;-72
2021/08/19 07:26:50;;;;;;;14.50;11.03;;;17.40;99.90;;;;;;5053577;28;20227;-73
2021/08/19 07:29:16;;;;;;;12.87;11.07;;;17.40;99.90;;;;;;5053214;28;20563;-72
2021/08/19 07:31:42;;;;;;;13.53;11.30;;;17.50;99.90;;;;;;5053489;28;20209;-72
2021/08/19 07:34:08;;;;;;;13.63;12.07;;;17.50;99.90;;;;;;5036010;28;20436;-72
2021/08/19 07:36:33;;;;;;;15.93;11.40;;;17.60;99.90;;;;;;5054772;28;20198;-72
2021/08/19 07:39:03;;;;;;;15.03;11.10;;;17.60;99.90;;;;;;5053981;28;20425;-73
2021/08/19 07:41:30;;;;;;;14.27;11.17;;;17.60;99.90;;;;;;5053933;28;20190;-74
2021/08/19 07:43:55;;;;;;;12.07;10.87;;;17.60;99.90;;;;;;5053035;28;20897;-72
2021/08/19 07:46:21;;;;;;;14.13;12.37;;;17.70;99.90;;;;;;5053388;28;20423;-73
2021/08/19 07:48:46;;;;;;;13.37;10.33;;;17.60;99.90;;;;;;5053172;28;20232;-74
2021/08/19 07:51:12;;;;;;;14.57;11.30;;;17.60;99.90;;;;;;5053882;28;20204;-74
2021/08/19 07:53:38;;;;;;;12.43;10.80;;;17.60;99.90;;;;;;5035863;28;20177;-73
2021/08/19 07:56:04;;;;;;;11.73;10.53;;;17.60;99.90;;;;;;5036004;28;20936;-74
2021/08/19 07:58:30;;;;;;;13.07;11.47;;;17.70;99.90;;;;;;5053373;28;20190;-74
2021/08/19 08:00:58;;;;;;;13.27;11.37;;;17.70;99.90;;;;;;5054049;28;20216;-74
2021/08/19 08:03:23;;;;;;;15.33;11.10;;;17.70;99.90;;;;;;5053970;28;20462;-73
2021/08/19 08:05:49;;;;;;;13.07;11.10;;;17.80;99.90;;;;;;5053729;28;20882;-73
2021/08/19 08:08:14;;;;;;;13.47;11.70;;;17.80;99.90;;;;;;5053273;28;20170;-74
2021/08/19 08:10:41;;;;;;;13.37;10.90;;;17.80;99.90;;;;;;5035760;28;20206;-74
2021/08/19 08:13:08;;;;;;;14.33;12.30;;;17.80;99.90;;;;;;5053574;28;20257;-73
2021/08/19 08:15:37;;;;;;;12.53;11.23;;;17.80;99.90;;;;;;5054388;28;20464;-73
2021/08/19 08:18:04;;;;;;;14.33;11.47;;;17.80;99.90;;;;;;5053952;28;20458;-72
2021/08/19 08:20:30;;;;;;;14.50;11.87;;;17.80;99.90;;;;;;5053499;28;20439;-74
2021/08/19 08:22:56;;;;;;;13.30;11.07;;;17.80;99.90;;;;;;5053858;28;20424;-74
2021/08/19 08:25:22;;;;;;;12.83;11.30;;;17.70;99.90;;;;;;5054132;28;20748;-72
2021/08/19 08:28:10;;;;;;;13.90;10.93;;;17.80;99.90;;;;;;5053768;28;20248;-72
2021/08/19 08:30:38;;;;;;;15.00;11.77;;;17.80;99.90;;;;;;5036153;28;20558;-73
2021/08/19 08:33:04;;;;;;;14.00;11.50;;;17.90;99.90;;;;;;5054219;28;20500;-73
2021/08/19 08:35:33;;;;;;;12.50;10.67;;;17.90;99.90;;;;;;5054136;28;20559;-72
2021/08/19 08:38:02;;;;;;;12.63;11.03;;;17.80;99.90;;;;;;5054424;28;20194;-72
2021/08/19 08:40:32;;;;;;;13.20;11.30;;;17.90;99.90;;;;;;5056204;28;20456;-73
2021/08/19 08:42:58;;;;;;;12.73;11.53;;;17.90;99.90;;;;;;5059238;28;20465;-74
2021/08/19 08:45:24;;;;;;;14.90;13.30;;;17.90;99.90;;;;;;5060011;28;20446;-74
2021/08/19 08:47:50;;;;;;;14.70;12.50;;;18.00;99.90;;;;;;5059459;28;20170;-73
2021/08/19 08:50:16;;;;;;;14.33;12.83;;;18.00;99.90;;;;;;5058189;28;20420;-73
2021/08/19 08:52:42;;;;;;;15.33;13.73;;;18.00;99.90;;;;;;5060469;28;20439;-73
2021/08/19 08:55:09;;;;;;;17.73;14.90;;;18.00;99.90;;;;;;5058822;28;20558;-73
2021/08/19 08:57:35;;;;;;;15.03;12.97;;;17.80;99.90;;;;;;5059019;28;20486;-74
2021/08/19 09:00:02;;;;;;;17.00;14.30;;;17.80;99.90;;;;;;5056984;28;20424;-74
2021/08/19 09:02:27;;;;;;;15.80;14.20;;;17.80;99.90;;;;;;5057136;28;20405;-73
2021/08/19 09:05:15;;;;;;;18.10;14.83;;;17.80;99.90;;;;;;5057783;28;20796;-72
2021/08/19 09:07:41;;;;;;;16.30;13.67;;;17.80;99.90;;;;;;5057505;28;20159;-72
2021/08/19 09:10:08;;;;;;;21.53;13.50;;;17.90;99.90;;;;;;5057405;28;20959;-74
2021/08/19 09:12:40;;;;;;;16.73;13.50;;;17.80;99.90;;;;;;5057564;28;20186;-72
2021/08/19 09:15:17;;;;;;;15.87;13.47;;;17.90;99.90;;;;;;5056390;28;20437;-73
2021/08/19 09:17:54;;;;;;;15.53;13.30;;;17.90;99.90;;;;;;5057058;28;20407;-72
2021/08/19 09:20:21;;;;;;;19.63;14.17;;;18.00;99.90;;;;;;5056524;28;21002;-72
2021/08/19 09:22:58;;;;;;;16.80;14.25;;;18.00;99.90;;;;;;5056328;28;20591;-74
2021/08/19 09:25:32;;;;;;;18.37;13.43;;;17.90;99.90;;;;;;5057242;28;20289;-73
2021/08/19 09:28:08;;;;;;;18.97;13.30;;;18.00;99.90;;;;;;5056745;28;20715;-74
2021/08/19 09:30:34;;;;;;;15.17;13.50;;;18.00;99.90;;;;;;5038435;28;20867;-74
2021/08/19 09:33:06;;;;;;;16.27;13.67;;;18.00;99.90;;;;;;5038367;28;20421;-74
2021/08/19 09:35:33;;;;;;;16.50;13.10;;;17.90;99.90;;;;;;5056517;28;20956;-73
2021/08/19 09:38:25;;;;;;;17.37;13.70;;;18.00;99.90;;;;;;5056295;28;20924;-71
2021/08/19 09:41:21;;;;;;;23.23;15.80;;;18.00;99.90;;;;;;5055422;28;20937;-72
2021/08/19 09:43:54;;;;;;;18.30;15.47;;;18.10;99.90;;;;;;5026141;28;20421;-73
2021/08/19 09:46:28;;;;;;;17.97;14.10;;;18.00;99.90;;;;;;5055415;28;20405;-73
2021/08/19 09:48:54;;;;;;;19.30;16.10;;;18.00;99.90;;;;;;5055496;28;20412;-73
2021/08/19 09:51:22;;;;;;;19.50;15.80;;;18.00;99.90;;;;;;5055015;28;20462;-72
2021/08/19 09:53:57;;;;;;;17.73;15.50;;;18.00;99.90;;;;;;5055621;28;20198;-72
2021/08/19 09:56:36;;;;;;;17.30;15.13;;;18.00;99.90;;;;;;5038128;28;20456;-74
2021/08/19 09:59:20;;;;;;;18.03;14.50;;;17.90;99.90;;;;;;5037652;28;20466;-73
2021/08/19 10:01:47;;;;;;;18.57;15.40;;;17.90;99.90;;;;;;5055129;28;20495;-73
2021/08/19 10:04:13;;;;;;;15.50;13.90;;;18.00;99.90;;;;;;5056020;28;20410;-74
2021/08/19 10:06:40;;;;;;;16.48;12.88;;;18.00;99.90;;;;;;5055400;28;20400;-74
2021/08/19 10:09:05;;;;;;;16.40;12.67;;;18.10;99.90;;;;;;5055135;28;20257;-75
2021/08/19 10:11:33;;;;;;;15.40;12.40;;;18.30;99.90;;;;;;5055600;28;21011;-73
2021/08/19 10:14:03;;;;;;;16.23;12.57;;;18.50;99.90;;;;;;5055248;28;20237;-72
2021/08/19 10:16:31;;;;;;;12.93;10.70;;;18.60;99.90;;;;;;5055177;28;20595;-73
2021/08/19 10:19:05;;;;;;;16.53;11.93;;;18.70;99.90;;;;;;5055031;28;20425;-73
2021/08/19 10:21:31;;;;;;;11.23;10.07;;;18.90;99.90;;;;;;5056003;28;20447;-73
2021/08/19 10:23:58;;;;;;;12.20;10.53;;;18.80;99.90;;;;;;5056042;28;20462;-72
2021/08/19 10:26:23;;;;;;;12.37;10.03;;;18.90;99.90;;;;;;5055708;28;20405;-73
2021/08/19 10:28:57;;;;;;;13.87;11.60;;;18.90;99.90;;;;;;5055078;28;20499;-73
2021/08/19 10:31:35;;;;;;;13.73;10.93;;;19.00;99.90;;;;;;5035673;28;20210;-72
2021/08/19 10:34:00;;;;;;;11.67;10.43;;;19.00;99.90;;;;;;5036759;28;20416;-71
2021/08/19 10:36:29;;;;;;;14.23;9.80;;;18.90;99.90;;;;;;5036592;28;20445;-72
2021/08/19 10:39:19;;;;;;;13.90;10.70;;;19.00;99.90;;;;;;5035365;28;20171;-72
2021/08/19 10:41:53;;;;;;;11.83;9.63;;;19.00;99.90;;;;;;5055525;28;20460;-73
2021/08/19 10:44:29;;;;;;;9.50;8.07;;;19.00;99.90;;;;;;5055553;28;21010;-72
2021/08/19 10:46:55;;;;;;;11.73;8.50;;;19.10;99.90;;;;;;5055019;28;20707;-72
2021/08/19 10:49:30;;;;;;;9.90;8.70;;;19.20;99.90;;;;;;5054383;28;20504;-73
2021/08/19 10:52:08;;;;;;;13.63;9.13;;;19.20;99.90;;;;;;5054804;28;20463;-73
2021/08/19 10:54:42;;;;;;;9.77;8.70;;;19.20;99.90;;;;;;5054898;28;20424;-72
2021/08/19 10:57:30;;;;;;;8.93;8.03;;;19.30;99.90;;;;;;5054974;28;20448;-74
2021/08/19 11:00:01;;;;;;;8.60;7.70;;;19.30;99.90;;;;;;5054611;28;20429;-72
2021/08/19 11:02:48;;;;;;;10.20;8.10;;;19.40;99.90;;;;;;5035962;28;20454;-72
2021/08/19 11:05:36;;;;;;;9.80;8.50;;;19.40;99.90;;;;;;5054032;28;20503;-72
2021/08/19 11:08:04;;;;;;;8.07;6.60;;;19.30;99.90;;;;;;5054850;28;20796;-72
2021/08/19 11:10:30;;;;;;;11.30;8.20;;;19.20;99.90;;;;;;5055413;28;20443;-72
2021/08/19 11:13:07;;;;;;;12.00;8.30;;;19.00;99.90;;;;;;5054672;28;20824;-73
2021/08/19 11:15:36;;;;;;;7.50;6.80;;;18.90;99.90;;;;;;5055127;28;21019;-73
2021/08/19 11:18:02;;;;;;;9.13;7.22;;;19.00;99.90;;;;;;5053876;28;20424;-72
2021/08/19 11:20:30;;;;;;;8.17;7.40;;;18.90;99.90;;;;;;5054166;28;20193;-72
2021/08/19 11:23:10;;;;;;;8.33;6.97;;;18.80;99.90;;;;;;5054066;28;20510;-73
2021/08/19 11:25:39;;;;;;;7.90;7.10;;;18.80;99.90;;;;;;5055005;28;20404;-72
2021/08/19 11:28:19;;;;;;;8.30;7.43;;;18.80;99.90;;;;;;5056208;28;20769;-73
2021/08/19 11:30:49;;;;;;;9.63;7.50;;;18.80;99.90;;;;;;5055005;28;20424;-72
2021/08/19 11:33:24;;;;;;;6.80;6.20;;;18.80;99.90;;;;;;5056343;28;20412;-72
2021/08/19 11:35:52;;;;;;;7.17;6.50;;;18.80;99.90;;;;;;5038777;28;20845;-71
2021/08/19 11:38:19;;;;;;;8.20;6.97;;;18.80;99.90;;;;;;5054531;28;20433;-72
2021/08/19 11:40:49;;;;;;;7.83;7.10;;;18.80;99.90;;;;;;5054022;28;20420;-72
2021/08/19 11:43:27;;;;;;;8.13;6.70;;;18.90;99.90;;;;;;5053652;28;20413;-71
2021/08/19 11:46:19;;;;;;;8.37;7.30;;;19.00;99.90;;;;;;5053759;28;20812;-72
2021/08/19 11:48:55;;;;;;;7.70;6.77;;;19.00;99.90;;;;;;5045444;28;20429;-72
2021/08/19 11:51:22;;;;;;;7.53;6.83;;;18.90;99.90;;;;;;5053407;28;20471;-72
2021/08/19 11:53:56;;;;;;;10.00;7.00;;;18.90;99.90;;;;;;5053968;28;20928;-73
2021/08/19 11:56:24;;;;;;;7.17;6.40;;;19.00;99.90;;;;;;5054047;28;21008;-72
2021/08/19 11:58:52;;;;;;;6.67;5.60;;;19.00;99.90;;;;;;5054430;28;20450;-72
2021/08/19 12:01:21;;;;;;;8.07;6.90;;;19.00;99.90;;;;;;5053487;28;20434;-72
2021/08/19 12:03:47;;;;;;;8.43;6.70;;;19.00;99.90;;;;;;5054288;28;20213;-72
2021/08/19 12:06:15;;;;;;;8.03;7.03;;;19.00;99.90;;;;;;5054404;28;20421;-72
2021/08/19 12:08:57;;;;;;;7.87;6.83;;;19.00;99.90;;;;;;5054347;28;20169;-72
2021/08/19 12:11:26;;;;;;;7.27;5.90;;;19.00;99.90;;;;;;5054353;28;20424;-72
2021/08/19 12:13:53;;;;;;;7.70;6.97;;;19.00;99.90;;;;;;5055375;28;20424;-73
2021/08/19 12:16:25;;;;;;;6.70;6.00;;;19.20;99.90;;;;;;5058946;28;20460;-71
2021/08/19 12:19:07;;;;;;;9.00;6.37;;;19.20;99.90;;;;;;5074585;28;20404;-72
2021/08/19 12:21:34;;;;;;;7.37;5.90;;;19.40;99.90;;;;;;5080869;28;20455;-73
2021/08/19 12:24:13;;;;;;;10.20;7.13;;;19.50;99.90;;;;;;5078778;28;20439;-72
2021/08/19 12:26:39;;;;;;;8.87;6.87;;;19.40;99.90;;;;;;5062190;28;20416;-72
2021/08/19 12:29:04;;;;;;;9.43;6.50;;;19.40;99.90;;;;;;5057636;28;20411;-72
2021/08/19 12:31:47;;;;;;;9.50;7.27;;;19.50;99.90;;;;;;5057161;28;20221;-72
2021/08/19 12:34:13;;;;;;;9.17;7.30;;;19.40;99.90;;;;;;5057289;28;20588;-73